Airfield :
LOGIN :

Register | Disclaimer

   EN    FR    IT 

 










Legend :    VFR   Marginal VFR   IFR   Intensive IFR   Very Intensive IFR
Visi :
Ceiling :
>= 8 km
>= 3000ft
5 to 8 km
1000 to 3000 ft
1500m to 5 km
500 to 1000 ft
800 to 1500m
200 to 500 ft
< 800m
< 200 ft
Symbols :   Thunderstorms  Fog  Heavy snow  Heavy precipitations  Wind > 20 kt
SIGMETs :     Misc.  Thunderstorms  Icing  Turbulence  Mountain Waves  Volcanic Ashes






- Airport Elevation : 390 ft
- IATA code : NQY


EGHQ - Newquay

CURRENT METAR :
  • 250750Z 36007KT 320V030 9999 BKN007 16/14 Q1018

EXPIRED METARs :
  • 250720Z 01006KT 350V050 9999 BKN007 15/14 Q1017
  • 250650Z 02006KT 9999 BKN006 15/14 Q1017
  • 250620Z 02005KT 9999 BKN006 15/14 Q1017
  • 250550Z 01005KT 9999 BKN006 14/14 Q1017
  • 250520Z 36004KT 9999 BKN007 14/14 Q1017
  • 250450Z AUTO 02004KT 9999 BKN008/// 14/14 Q1017
  • 250420Z AUTO 01003KT 9999 BKN007/// 14/14 Q1017
  • 250350Z AUTO 02004KT 9999 OVC008/// 14/13 Q1017
  • 250320Z AUTO 02004KT 9999 OVC008/// 14/13 Q1017

TAF TAF EGHQ
Valid from the 25 at 06:00 until the 25 at 15:00 UTC


250457Z 2506/2515 02004KT 9999 BKN008
BECMG 2506/2509 SCT030
BECMG 2512/2515 32010KT



MET'MAP, your aeronautical weather chart ! - Copyright ORBIFLY December 2007 - Disclaimer

ORBIFLY MET'MAP TEAM :

Programming & Development : Alexandra Zaïnal
Original concept : Baudouin d'Aumeries
Technical & hardware support : Manuel Goepfert
Assistance : Marc-Olivier Méhu




SOURCES & CREDITS :

   NOAA